Zarate, Argentina
Current Conditions -  °F | °C
As of 11:00 PM on Thursday 27 Nov 2014 (Local Time) from SADF Reporting Station
Clear Clear  
Wind Chill: 72°   Ceiling: Unl
Heat Index: 72°   Visibility: 6mi
Dew Point: 59°   Wind: 8mph
Humidity: 64%   Direction: 50°NE
Pressure: 29.97"   Gusts: NA
Location:  34.09°S, 59.04°W
Report Text: SADF 280200Z 05007KT CAVOK 22/15 Q1015
Loading
Personal Weather Stations






























Interactive Weather Map New forecast layout! Learn more

10-Day Weather Forecast

Advertisements
Track Severe Weather on mobile